sensor_id;sensor_type;location;lat;lon;timestamp;P1;durP1;ratioP1;P2;durP2;ratioP2
10244;SDS011;5167;52.164;10.530;2022-09-24T00:01:19;6.20;;;3.90;;
10244;SDS011;5167;52.164;10.530;2022-09-24T00:03:50;5.28;;;3.75;;
10244;SDS011;5167;52.164;10.530;2022-09-24T00:06:18;4.57;;;4.03;;
10244;SDS011;5167;52.164;10.530;2022-09-24T00:08:47;5.55;;;4.40;;
10244;SDS011;5167;52.164;10.530;2022-09-24T00:11:15;4.55;;;4.15;;
10244;SDS011;5167;52.164;10.530;2022-09-24T00:13:44;4.72;;;3.80;;
10244;SDS011;5167;52.164;10.530;2022-09-24T00:16:11;5.65;;;4.07;;
10244;SDS011;5167;52.164;10.530;2022-09-24T00:18:37;4.75;;;3.83;;
10244;SDS011;5167;52.164;10.530;2022-09-24T00:21:21;4.43;;;3.78;;
10244;SDS011;5167;52.164;10.530;2022-09-24T00:23:49;6.40;;;4.32;;
10244;SDS011;5167;52.164;10.530;2022-09-24T00:26:16;7.50;;;4.72;;
10244;SDS011;5167;52.164;10.530;2022-09-24T00:29:01;5.25;;;4.35;;
10244;SDS011;5167;52.164;10.530;2022-09-24T00:31:27;6.63;;;4.00;;
10244;SDS011;5167;52.164;10.530;2022-09-24T00:33:53;7.97;;;4.47;;
10244;SDS011;5167;52.164;10.530;2022-09-24T00:36:19;4.80;;;3.92;;
10244;SDS011;5167;52.164;10.530;2022-09-24T00:38:49;9.98;;;4.50;;
10244;SDS011;5167;52.164;10.530;2022-09-24T00:41:17;6.78;;;4.25;;
10244;SDS011;5167;52.164;10.530;2022-09-24T00:43:44;4.90;;;3.55;;
10244;SDS011;5167;52.164;10.530;2022-09-24T00:46:20;4.78;;;3.30;;
10244;SDS011;5167;52.164;10.530;2022-09-24T00:48:53;5.40;;;3.63;;
10244;SDS011;5167;52.164;10.530;2022-09-24T00:51:28;7.47;;;3.85;;
10244;SDS011;5167;52.164;10.530;2022-09-24T00:53:58;5.38;;;3.30;;
10244;SDS011;5167;52.164;10.530;2022-09-24T00:56:28;3.90;;;3.58;;
10244;SDS011;5167;52.164;10.530;2022-09-24T00:58:56;5.10;;;3.30;;
10244;SDS011;5167;52.164;10.530;2022-09-24T01:01:26;5.80;;;3.33;;
10244;SDS011;5167;52.164;10.530;2022-09-24T01:03:53;8.13;;;3.45;;
10244;SDS011;5167;52.164;10.530;2022-09-24T01:06:21;5.28;;;3.58;;
10244;SDS011;5167;52.164;10.530;2022-09-24T01:08:48;6.15;;;3.65;;
10244;SDS011;5167;52.164;10.530;2022-09-24T01:16:46;4.80;;;3.42;;
10244;SDS011;5167;52.164;10.530;2022-09-24T01:28:12;6.13;;;3.65;;
10244;SDS011;5167;52.164;10.530;2022-09-24T01:33:50;4.20;;;3.33;;
10244;SDS011;5167;52.164;10.530;2022-09-24T01:36:19;3.50;;;2.78;;
10244;SDS011;5167;52.164;10.530;2022-09-24T01:38:46;3.92;;;3.00;;
10244;SDS011;5167;52.164;10.530;2022-09-24T01:41:15;2.90;;;2.70;;
10244;SDS011;5167;52.164;10.530;2022-09-24T01:43:41;3.42;;;2.80;;
10244;SDS011;5167;52.164;10.530;2022-09-24T01:46:08;2.72;;;2.53;;
10244;SDS011;5167;52.164;10.530;2022-09-24T01:48:36;2.90;;;2.60;;
10244;SDS011;5167;52.164;10.530;2022-09-24T01:51:17;3.85;;;3.47;;
10244;SDS011;5167;52.164;10.530;2022-09-24T01:54:01;4.20;;;2.72;;
10244;SDS011;5167;52.164;10.530;2022-09-24T01:56:43;3.42;;;2.88;;
10244;SDS011;5167;52.164;10.530;2022-09-24T01:59:30;3.25;;;2.95;;
10244;SDS011;5167;52.164;10.530;2022-09-24T02:02:11;3.25;;;2.90;;
10244;SDS011;5167;52.164;10.530;2022-09-24T02:04:55;2.92;;;2.67;;
10244;SDS011;5167;52.164;10.530;2022-09-24T02:07:34;3.38;;;3.08;;
10244;SDS011;5167;52.164;10.530;2022-09-24T02:10:03;3.45;;;3.15;;
10244;SDS011;5167;52.164;10.530;2022-09-24T02:12:31;3.58;;;3.20;;
10244;SDS011;5167;52.164;10.530;2022-09-24T02:15:04;2.97;;;2.72;;
10244;SDS011;5167;52.164;10.530;2022-09-24T02:17:37;6.28;;;3.08;;
10244;SDS011;5167;52.164;10.530;2022-09-24T02:20:09;7.82;;;3.25;;
10244;SDS011;5167;52.164;10.530;2022-09-24T02:22:40;3.75;;;2.60;;
10244;SDS011;5167;52.164;10.530;2022-09-24T02:25:09;4.70;;;2.95;;
10244;SDS011;5167;52.164;10.530;2022-09-24T02:27:39;3.78;;;3.35;;
10244;SDS011;5167;52.164;10.530;2022-09-24T02:30:05;3.83;;;3.13;;
10244;SDS011;5167;52.164;10.530;2022-09-24T02:32:33;2.97;;;2.70;;
10244;SDS011;5167;52.164;10.530;2022-09-24T02:35:03;2.85;;;2.65;;
10244;SDS011;5167;52.164;10.530;2022-09-24T02:37:36;4.43;;;2.92;;
10244;SDS011;5167;52.164;10.530;2022-09-24T02:40:04;7.25;;;3.03;;
10244;SDS011;5167;52.164;10.530;2022-09-24T02:42:32;2.75;;;2.45;;
10244;SDS011;5167;52.164;10.530;2022-09-24T02:44:58;3.78;;;3.22;;
10244;SDS011;5167;52.164;10.530;2022-09-24T02:47:25;4.03;;;3.03;;
10244;SDS011;5167;52.164;10.530;2022-09-24T02:49:51;3.20;;;2.90;;
10244;SDS011;5167;52.164;10.530;2022-09-24T02:52:16;3.30;;;3.00;;
10244;SDS011;5167;52.164;10.530;2022-09-24T02:54:43;4.13;;;2.83;;
10244;SDS011;5167;52.164;10.530;2022-09-24T02:57:09;3.50;;;3.20;;
10244;SDS011;5167;52.164;10.530;2022-09-24T02:59:35;4.00;;;3.05;;
10244;SDS011;5167;52.164;10.530;2022-09-24T03:02:00;4.07;;;3.10;;
10244;SDS011;5167;52.164;10.530;2022-09-24T03:04:26;3.08;;;2.80;;
10244;SDS011;5167;52.164;10.530;2022-09-24T03:06:53;3.80;;;3.00;;
10244;SDS011;5167;52.164;10.530;2022-09-24T03:09:18;3.33;;;3.00;;
10244;SDS011;5167;52.164;10.530;2022-09-24T03:11:44;4.07;;;3.10;;
10244;SDS011;5167;52.164;10.530;2022-09-24T03:14:11;3.45;;;3.10;;
10244;SDS011;5167;52.164;10.530;2022-09-24T03:16:37;3.22;;;2.95;;
10244;SDS011;5167;52.164;10.530;2022-09-24T03:19:03;3.72;;;2.95;;
10244;SDS011;5167;52.164;10.530;2022-09-24T03:21:29;3.50;;;3.20;;
10244;SDS011;5167;52.164;10.530;2022-09-24T03:23:55;4.13;;;3.13;;
10244;SDS011;5167;52.164;10.530;2022-09-24T03:26:20;5.55;;;3.67;;
10244;SDS011;5167;52.164;10.530;2022-09-24T03:28:46;4.30;;;3.13;;
10244;SDS011;5167;52.164;10.530;2022-09-24T03:31:12;3.28;;;3.08;;
10244;SDS011;5167;52.164;10.530;2022-09-24T03:36:12;5.30;;;3.60;;
10244;SDS011;5167;52.164;10.530;2022-09-24T03:38:38;4.43;;;3.63;;
10244;SDS011;5167;52.164;10.530;2022-09-24T03:41:05;3.45;;;3.15;;
10244;SDS011;5167;52.164;10.530;2022-09-24T03:43:32;5.05;;;3.40;;
10244;SDS011;5167;52.164;10.530;2022-09-24T03:45:58;3.85;;;3.17;;
10244;SDS011;5167;52.164;10.530;2022-09-24T03:48:24;4.30;;;3.60;;
10244;SDS011;5167;52.164;10.530;2022-09-24T03:50:50;4.90;;;3.30;;
10244;SDS011;5167;52.164;10.530;2022-09-24T03:53:17;4.40;;;3.00;;
10244;SDS011;5167;52.164;10.530;2022-09-24T03:55:43;3.55;;;3.22;;
10244;SDS011;5167;52.164;10.530;2022-09-24T03:58:13;5.50;;;3.78;;
10244;SDS011;5167;52.164;10.530;2022-09-24T04:00:40;3.88;;;3.47;;
10244;SDS011;5167;52.164;10.530;2022-09-24T04:03:06;3.42;;;3.13;;
10244;SDS011;5167;52.164;10.530;2022-09-24T04:05:32;3.83;;;3.42;;
10244;SDS011;5167;52.164;10.530;2022-09-24T04:07:58;3.42;;;3.13;;
10244;SDS011;5167;52.164;10.530;2022-09-24T04:10:25;4.13;;;3.20;;
10244;SDS011;5167;52.164;10.530;2022-09-24T04:12:51;4.43;;;3.47;;
10244;SDS011;5167;52.164;10.530;2022-09-24T04:15:17;3.50;;;3.20;;
10244;SDS011;5167;52.164;10.530;2022-09-24T04:17:52;3.60;;;3.30;;
10244;SDS011;5167;52.164;10.530;2022-09-24T04:20:19;5.88;;;3.95;;
10244;SDS011;5167;52.164;10.530;2022-09-24T04:22:47;4.82;;;3.60;;
10244;SDS011;5167;52.164;10.530;2022-09-24T04:25:13;4.22;;;3.47;;
10244;SDS011;5167;52.164;10.530;2022-09-24T04:27:38;7.32;;;4.47;;
10244;SDS011;5167;52.164;10.530;2022-09-24T04:30:05;4.57;;;3.10;;
10244;SDS011;5167;52.164;10.530;2022-09-24T04:32:31;6.00;;;3.28;;
10244;SDS011;5167;52.164;10.530;2022-09-24T04:34:57;5.00;;;3.40;;
10244;SDS011;5167;52.164;10.530;2022-09-24T04:37:22;4.03;;;3.63;;
10244;SDS011;5167;52.164;10.530;2022-09-24T04:39:48;4.32;;;3.10;;
10244;SDS011;5167;52.164;10.530;2022-09-24T04:42:15;5.88;;;3.55;;
10244;SDS011;5167;52.164;10.530;2022-09-24T04:44:43;5.60;;;3.45;;
10244;SDS011;5167;52.164;10.530;2022-09-24T04:47:15;5.65;;;3.92;;
10244;SDS011;5167;52.164;10.530;2022-09-24T04:49:42;4.32;;;3.80;;
10244;SDS011;5167;52.164;10.530;2022-09-24T04:52:10;5.18;;;3.90;;
10244;SDS011;5167;52.164;10.530;2022-09-24T04:54:39;4.35;;;3.95;;
10244;SDS011;5167;52.164;10.530;2022-09-24T04:57:14;5.47;;;3.83;;
10244;SDS011;5167;52.164;10.530;2022-09-24T04:59:40;4.07;;;3.67;;
10244;SDS011;5167;52.164;10.530;2022-09-24T05:02:07;4.95;;;3.95;;
10244;SDS011;5167;52.164;10.530;2022-09-24T05:04:36;4.65;;;3.97;;
10244;SDS011;5167;52.164;10.530;2022-09-24T05:07:02;5.75;;;3.95;;
10244;SDS011;5167;52.164;10.530;2022-09-24T05:09:28;5.50;;;3.88;;
10244;SDS011;5167;52.164;10.530;2022-09-24T05:11:56;4.78;;;4.10;;
10244;SDS011;5167;52.164;10.530;2022-09-24T05:14:22;5.20;;;3.97;;
10244;SDS011;5167;52.164;10.530;2022-09-24T05:16:48;4.55;;;4.15;;
10244;SDS011;5167;52.164;10.530;2022-09-24T05:19:13;5.70;;;4.40;;
10244;SDS011;5167;52.164;10.530;2022-09-24T05:21:40;5.88;;;4.30;;
10244;SDS011;5167;52.164;10.530;2022-09-24T05:24:06;5.13;;;4.15;;
10244;SDS011;5167;52.164;10.530;2022-09-24T05:26:31;6.22;;;4.38;;
10244;SDS011;5167;52.164;10.530;2022-09-24T05:29:15;7.32;;;4.70;;
10244;SDS011;5167;52.164;10.530;2022-09-24T05:31:42;7.38;;;5.20;;
10244;SDS011;5167;52.164;10.530;2022-09-24T05:34:07;5.40;;;4.60;;
10244;SDS011;5167;52.164;10.530;2022-09-24T05:36:33;7.95;;;4.68;;
10244;SDS011;5167;52.164;10.530;2022-09-24T05:39:00;5.22;;;4.60;;
10244;SDS011;5167;52.164;10.530;2022-09-24T05:41:26;7.28;;;4.70;;
10244;SDS011;5167;52.164;10.530;2022-09-24T05:43:51;7.32;;;4.97;;
10244;SDS011;5167;52.164;10.530;2022-09-24T05:46:17;10.27;;;4.60;;
10244;SDS011;5167;52.164;10.530;2022-09-24T05:48:43;5.93;;;4.78;;
10244;SDS011;5167;52.164;10.530;2022-09-24T05:51:08;5.38;;;4.55;;
10244;SDS011;5167;52.164;10.530;2022-09-24T05:53:34;4.55;;;4.13;;
10244;SDS011;5167;52.164;10.530;2022-09-24T05:55:59;5.32;;;4.63;;
10244;SDS011;5167;52.164;10.530;2022-09-24T05:58:25;7.85;;;4.55;;
10244;SDS011;5167;52.164;10.530;2022-09-24T06:00:51;5.05;;;4.22;;
10244;SDS011;5167;52.164;10.530;2022-09-24T06:03:17;7.78;;;4.97;;
10244;SDS011;5167;52.164;10.530;2022-09-24T06:05:44;8.63;;;4.57;;
10244;SDS011;5167;52.164;10.530;2022-09-24T06:08:12;4.50;;;4.10;;
10244;SDS011;5167;52.164;10.530;2022-09-24T06:10:39;5.40;;;4.90;;
10244;SDS011;5167;52.164;10.530;2022-09-24T06:13:06;5.75;;;4.18;;
10244;SDS011;5167;52.164;10.530;2022-09-24T06:15:32;7.00;;;5.18;;
10244;SDS011;5167;52.164;10.530;2022-09-24T06:18:00;5.00;;;4.32;;
10244;SDS011;5167;52.164;10.530;2022-09-24T06:20:25;7.07;;;4.68;;
10244;SDS011;5167;52.164;10.530;2022-09-24T06:22:54;6.47;;;4.38;;
10244;SDS011;5167;52.164;10.530;2022-09-24T06:25:21;5.35;;;4.50;;
10244;SDS011;5167;52.164;10.530;2022-09-24T06:27:57;6.30;;;4.50;;
10244;SDS011;5167;52.164;10.530;2022-09-24T06:30:26;5.30;;;4.80;;
10244;SDS011;5167;52.164;10.530;2022-09-24T06:32:52;7.47;;;4.80;;
10244;SDS011;5167;52.164;10.530;2022-09-24T06:35:19;14.82;;;5.05;;
10244;SDS011;5167;52.164;10.530;2022-09-24T06:37:44;5.00;;;4.50;;
10244;SDS011;5167;52.164;10.530;2022-09-24T06:40:13;6.40;;;4.65;;
10244;SDS011;5167;52.164;10.530;2022-09-24T06:42:39;5.20;;;4.57;;
10244;SDS011;5167;52.164;10.530;2022-09-24T06:45:05;8.48;;;5.00;;
10244;SDS011;5167;52.164;10.530;2022-09-24T06:47:31;6.53;;;4.35;;
10244;SDS011;5167;52.164;10.530;2022-09-24T06:49:56;6.22;;;4.47;;
10244;SDS011;5167;52.164;10.530;2022-09-24T06:52:22;8.63;;;5.70;;
10244;SDS011;5167;52.164;10.530;2022-09-24T06:54:47;6.15;;;4.57;;
10244;SDS011;5167;52.164;10.530;2022-09-24T06:57:13;7.72;;;4.70;;
10244;SDS011;5167;52.164;10.530;2022-09-24T06:59:39;5.32;;;4.82;;
10244;SDS011;5167;52.164;10.530;2022-09-24T07:02:06;5.00;;;4.50;;
10244;SDS011;5167;52.164;10.530;2022-09-24T07:04:34;6.43;;;5.03;;
10244;SDS011;5167;52.164;10.530;2022-09-24T07:06:59;5.47;;;4.60;;
10244;SDS011;5167;52.164;10.530;2022-09-24T07:09:43;5.60;;;4.40;;
10244;SDS011;5167;52.164;10.530;2022-09-24T07:12:09;6.28;;;4.93;;
10244;SDS011;5167;52.164;10.530;2022-09-24T07:14:34;6.85;;;4.32;;
10244;SDS011;5167;52.164;10.530;2022-09-24T07:17:00;5.43;;;4.78;;
10244;SDS011;5167;52.164;10.530;2022-09-24T07:19:26;5.95;;;5.07;;
10244;SDS011;5167;52.164;10.530;2022-09-24T07:21:51;5.60;;;5.00;;
10244;SDS011;5167;52.164;10.530;2022-09-24T07:24:17;5.82;;;4.57;;
10244;SDS011;5167;52.164;10.530;2022-09-24T07:26:42;8.00;;;4.72;;
10244;SDS011;5167;52.164;10.530;2022-09-24T07:29:08;7.03;;;4.28;;
10244;SDS011;5167;52.164;10.530;2022-09-24T07:31:33;5.25;;;4.53;;
10244;SDS011;5167;52.164;10.530;2022-09-24T07:34:00;5.60;;;4.78;;
10244;SDS011;5167;52.164;10.530;2022-09-24T07:36:25;5.45;;;4.32;;
10244;SDS011;5167;52.164;10.530;2022-09-24T07:38:55;5.20;;;4.70;;
10244;SDS011;5167;52.164;10.530;2022-09-24T07:41:21;5.13;;;4.63;;
10244;SDS011;5167;52.164;10.530;2022-09-24T07:43:47;7.97;;;4.60;;
10244;SDS011;5167;52.164;10.530;2022-09-24T07:46:12;6.60;;;4.97;;
10244;SDS011;5167;52.164;10.530;2022-09-24T07:48:38;6.03;;;4.82;;
10244;SDS011;5167;52.164;10.530;2022-09-24T07:51:04;5.90;;;4.78;;
10244;SDS011;5167;52.164;10.530;2022-09-24T07:53:33;5.28;;;4.20;;
10244;SDS011;5167;52.164;10.530;2022-09-24T07:55:58;8.27;;;5.15;;
10244;SDS011;5167;52.164;10.530;2022-09-24T07:58:25;7.82;;;5.20;;
10244;SDS011;5167;52.164;10.530;2022-09-24T08:00:50;6.88;;;4.72;;
10244;SDS011;5167;52.164;10.530;2022-09-24T08:03:16;7.72;;;5.00;;
10244;SDS011;5167;52.164;10.530;2022-09-24T08:05:44;9.23;;;5.60;;
10244;SDS011;5167;52.164;10.530;2022-09-24T08:08:10;6.68;;;5.03;;
10244;SDS011;5167;52.164;10.530;2022-09-24T08:10:36;11.38;;;4.38;;
10244;SDS011;5167;52.164;10.530;2022-09-24T08:13:02;5.35;;;4.15;;
10244;SDS011;5167;52.164;10.530;2022-09-24T08:15:28;5.90;;;4.50;;
10244;SDS011;5167;52.164;10.530;2022-09-24T08:17:59;5.65;;;4.90;;
10244;SDS011;5167;52.164;10.530;2022-09-24T08:20:27;5.47;;;4.53;;
10244;SDS011;5167;52.164;10.530;2022-09-24T08:22:54;6.55;;;4.75;;
10244;SDS011;5167;52.164;10.530;2022-09-24T08:25:27;6.88;;;4.43;;
10244;SDS011;5167;52.164;10.530;2022-09-24T08:27:52;8.52;;;4.60;;
10244;SDS011;5167;52.164;10.530;2022-09-24T08:30:18;6.40;;;4.65;;
10244;SDS011;5167;52.164;10.530;2022-09-24T08:32:45;11.70;;;4.82;;
10244;SDS011;5167;52.164;10.530;2022-09-24T08:35:14;6.57;;;4.40;;
10244;SDS011;5167;52.164;10.530;2022-09-24T08:37:40;5.97;;;4.28;;
10244;SDS011;5167;52.164;10.530;2022-09-24T08:40:06;5.10;;;4.15;;
10244;SDS011;5167;52.164;10.530;2022-09-24T08:42:49;7.85;;;4.57;;
10244;SDS011;5167;52.164;10.530;2022-09-24T08:45:46;8.50;;;4.78;;
10244;SDS011;5167;52.164;10.530;2022-09-24T08:48:36;7.80;;;4.43;;
10244;SDS011;5167;52.164;10.530;2022-09-24T08:51:06;5.72;;;4.30;;
10244;SDS011;5167;52.164;10.530;2022-09-24T08:56:29;7.72;;;4.32;;
10244;SDS011;5167;52.164;10.530;2022-09-24T08:59:09;5.88;;;4.90;;
10244;SDS011;5167;52.164;10.530;2022-09-24T09:01:42;6.38;;;4.80;;
10244;SDS011;5167;52.164;10.530;2022-09-24T09:07:25;9.07;;;5.00;;
10244;SDS011;5167;52.164;10.530;2022-09-24T09:12:29;5.75;;;4.47;;
10244;SDS011;5167;52.164;10.530;2022-09-24T09:15:03;6.65;;;4.85;;
10244;SDS011;5167;52.164;10.530;2022-09-24T09:20:20;7.00;;;4.95;;
10244;SDS011;5167;52.164;10.530;2022-09-24T09:22:52;7.88;;;4.78;;
10244;SDS011;5167;52.164;10.530;2022-09-24T09:25:26;11.32;;;5.07;;
10244;SDS011;5167;52.164;10.530;2022-09-24T09:27:57;6.88;;;5.25;;
10244;SDS011;5167;52.164;10.530;2022-09-24T09:30:26;7.63;;;5.43;;
10244;SDS011;5167;52.164;10.530;2022-09-24T09:33:07;6.95;;;4.55;;
10244;SDS011;5167;52.164;10.530;2022-09-24T09:35:46;7.75;;;5.00;;
10244;SDS011;5167;52.164;10.530;2022-09-24T09:41:02;6.95;;;5.22;;
10244;SDS011;5167;52.164;10.530;2022-09-24T09:43:39;9.50;;;5.20;;
10244;SDS011;5167;52.164;10.530;2022-09-24T09:48:58;7.55;;;5.43;;
10244;SDS011;5167;52.164;10.530;2022-09-24T09:51:29;8.57;;;5.70;;
10244;SDS011;5167;52.164;10.530;2022-09-24T09:53:59;9.43;;;5.45;;
10244;SDS011;5167;52.164;10.530;2022-09-24T09:56:28;6.90;;;5.25;;
10244;SDS011;5167;52.164;10.530;2022-09-24T09:59:06;6.47;;;5.57;;
10244;SDS011;5167;52.164;10.530;2022-09-24T10:01:35;9.90;;;5.10;;
10244;SDS011;5167;52.164;10.530;2022-09-24T10:04:18;10.32;;;5.68;;
10244;SDS011;5167;52.164;10.530;2022-09-24T10:09:33;8.98;;;6.65;;
10244;SDS011;5167;52.164;10.530;2022-09-24T10:12:19;8.57;;;5.70;;
10244;SDS011;5167;52.164;10.530;2022-09-24T10:17:50;7.82;;;5.13;;
10244;SDS011;5167;52.164;10.530;2022-09-24T10:20:20;8.98;;;5.28;;
10244;SDS011;5167;52.164;10.530;2022-09-24T10:22:48;9.70;;;6.38;;
10244;SDS011;5167;52.164;10.530;2022-09-24T10:25:17;6.47;;;5.20;;
10244;SDS011;5167;52.164;10.530;2022-09-24T10:27:48;5.53;;;4.78;;
10244;SDS011;5167;52.164;10.530;2022-09-24T10:30:15;6.68;;;5.38;;
10244;SDS011;5167;52.164;10.530;2022-09-24T10:33:03;10.15;;;5.72;;
10244;SDS011;5167;52.164;10.530;2022-09-24T10:35:31;8.32;;;5.82;;
10244;SDS011;5167;52.164;10.530;2022-09-24T10:38:00;7.47;;;5.65;;
10244;SDS011;5167;52.164;10.530;2022-09-24T10:40:36;9.77;;;5.82;;
10244;SDS011;5167;52.164;10.530;2022-09-24T10:43:03;8.27;;;5.22;;
10244;SDS011;5167;52.164;10.530;2022-09-24T10:48:42;5.85;;;4.63;;
10244;SDS011;5167;52.164;10.530;2022-09-24T10:54:01;8.15;;;4.70;;
10244;SDS011;5167;52.164;10.530;2022-09-24T10:56:49;10.57;;;5.35;;
10244;SDS011;5167;52.164;10.530;2022-09-24T11:05:14;6.22;;;4.55;;
10244;SDS011;5167;52.164;10.530;2022-09-24T11:10:50;6.95;;;4.90;;
10244;SDS011;5167;52.164;10.530;2022-09-24T11:30:08;9.00;;;5.13;;
10244;SDS011;5167;52.164;10.530;2022-09-24T11:38:14;11.25;;;6.20;;
10244;SDS011;5167;52.164;10.530;2022-09-24T11:55:36;13.07;;;7.30;;
10244;SDS011;5167;52.164;10.530;2022-09-24T12:01:12;12.20;;;7.28;;
10244;SDS011;5167;52.164;10.530;2022-09-24T12:06:29;8.98;;;6.65;;
10244;SDS011;5167;52.164;10.530;2022-09-24T12:12:04;13.48;;;6.75;;
10244;SDS011;5167;52.164;10.530;2022-09-24T12:17:24;8.18;;;5.95;;
10244;SDS011;5167;52.164;10.530;2022-09-24T12:20:00;8.35;;;5.28;;
10244;SDS011;5167;52.164;10.530;2022-09-24T12:22:26;8.57;;;4.80;;
10244;SDS011;5167;52.164;10.530;2022-09-24T12:24:55;8.90;;;4.53;;
10244;SDS011;5167;52.164;10.530;2022-09-24T12:27:33;9.40;;;4.93;;
10244;SDS011;5167;52.164;10.530;2022-09-24T12:38:19;9.52;;;4.68;;
10244;SDS011;5167;52.164;10.530;2022-09-24T12:46:00;8.20;;;4.53;;
10244;SDS011;5167;52.164;10.530;2022-09-24T12:48:28;15.95;;;6.25;;
10244;SDS011;5167;52.164;10.530;2022-09-24T12:50:58;14.75;;;7.28;;
10244;SDS011;5167;52.164;10.530;2022-09-24T12:53:34;13.68;;;7.47;;
10244;SDS011;5167;52.164;10.530;2022-09-24T12:56:03;11.70;;;7.28;;
10244;SDS011;5167;52.164;10.530;2022-09-24T13:01:05;9.48;;;5.35;;
10244;SDS011;5167;52.164;10.530;2022-09-24T13:03:38;11.23;;;4.70;;
10244;SDS011;5167;52.164;10.530;2022-09-24T13:06:50;7.88;;;4.85;;
10244;SDS011;5167;52.164;10.530;2022-09-24T13:09:01;11.85;;;5.60;;
10244;SDS011;5167;52.164;10.530;2022-09-24T13:11:32;7.38;;;5.55;;
10244;SDS011;5167;52.164;10.530;2022-09-24T13:16:54;9.75;;;6.60;;
10244;SDS011;5167;52.164;10.530;2022-09-24T13:19:39;13.52;;;7.95;;
10244;SDS011;5167;52.164;10.530;2022-09-24T13:22:18;13.52;;;7.68;;
10244;SDS011;5167;52.164;10.530;2022-09-24T13:35:24;15.60;;;9.02;;
10244;SDS011;5167;52.164;10.530;2022-09-24T13:38:15;13.18;;;7.70;;
10244;SDS011;5167;52.164;10.530;2022-09-24T13:40:55;16.15;;;7.90;;
10244;SDS011;5167;52.164;10.530;2022-09-24T13:43:39;12.38;;;6.93;;
10244;SDS011;5167;52.164;10.530;2022-09-24T13:46:13;17.55;;;8.57;;
10244;SDS011;5167;52.164;10.530;2022-09-24T13:48:44;12.27;;;6.85;;
10244;SDS011;5167;52.164;10.530;2022-09-24T13:51:20;13.27;;;7.30;;
10244;SDS011;5167;52.164;10.530;2022-09-24T13:53:54;16.45;;;7.65;;
10244;SDS011;5167;52.164;10.530;2022-09-24T13:56:27;13.85;;;7.65;;
10244;SDS011;5167;52.164;10.530;2022-09-24T13:59:01;9.07;;;6.10;;
10244;SDS011;5167;52.164;10.530;2022-09-24T14:01:30;22.17;;;9.65;;
10244;SDS011;5167;52.164;10.530;2022-09-24T14:04:03;9.90;;;5.57;;
10244;SDS011;5167;52.164;10.530;2022-09-24T14:06:41;11.02;;;6.00;;
10244;SDS011;5167;52.164;10.530;2022-09-24T14:11:51;15.52;;;6.80;;
10244;SDS011;5167;52.164;10.530;2022-09-24T14:14:22;12.40;;;7.18;;
10244;SDS011;5167;52.164;10.530;2022-09-24T14:16:50;11.75;;;7.25;;
10244;SDS011;5167;52.164;10.530;2022-09-24T14:19:19;12.85;;;7.53;;
10244;SDS011;5167;52.164;10.530;2022-09-24T14:21:49;10.98;;;7.10;;
10244;SDS011;5167;52.164;10.530;2022-09-24T14:29:18;13.05;;;7.63;;
10244;SDS011;5167;52.164;10.530;2022-09-24T14:31:56;13.57;;;6.38;;
10244;SDS011;5167;52.164;10.530;2022-09-24T14:34:25;11.23;;;6.60;;
10244;SDS011;5167;52.164;10.530;2022-09-24T14:36:56;14.13;;;6.43;;
10244;SDS011;5167;52.164;10.530;2022-09-24T14:39:24;9.63;;;5.53;;
10244;SDS011;5167;52.164;10.530;2022-09-24T14:41:52;10.88;;;6.65;;
10244;SDS011;5167;52.164;10.530;2022-09-24T14:44:22;10.18;;;6.40;;
10244;SDS011;5167;52.164;10.530;2022-09-24T14:46:57;12.48;;;5.97;;
10244;SDS011;5167;52.164;10.530;2022-09-24T14:52:00;10.65;;;6.10;;
10244;SDS011;5167;52.164;10.530;2022-09-24T14:54:31;10.77;;;6.60;;
10244;SDS011;5167;52.164;10.530;2022-09-24T14:59:43;9.65;;;5.53;;
10244;SDS011;5167;52.164;10.530;2022-09-24T15:04:48;8.82;;;5.35;;
10244;SDS011;5167;52.164;10.530;2022-09-24T15:07:26;9.32;;;5.65;;
10244;SDS011;5167;52.164;10.530;2022-09-24T15:09:54;16.38;;;9.00;;
10244;SDS011;5167;52.164;10.530;2022-09-24T15:12:32;9.75;;;5.75;;
10244;SDS011;5167;52.164;10.530;2022-09-24T15:17:44;11.02;;;5.53;;
10244;SDS011;5167;52.164;10.530;2022-09-24T15:20:10;7.28;;;5.30;;
10244;SDS011;5167;52.164;10.530;2022-09-24T15:22:36;9.00;;;5.60;;
10244;SDS011;5167;52.164;10.530;2022-09-24T15:25:03;8.00;;;4.85;;
10244;SDS011;5167;52.164;10.530;2022-09-24T15:27:33;8.85;;;5.18;;
10244;SDS011;5167;52.164;10.530;2022-09-24T15:30:03;8.32;;;5.15;;
10244;SDS011;5167;52.164;10.530;2022-09-24T15:32:32;7.68;;;4.68;;
10244;SDS011;5167;52.164;10.530;2022-09-24T15:35:02;7.57;;;5.22;;
10244;SDS011;5167;52.164;10.530;2022-09-24T15:37:32;10.57;;;5.57;;
10244;SDS011;5167;52.164;10.530;2022-09-24T15:39:58;9.48;;;5.55;;
10244;SDS011;5167;52.164;10.530;2022-09-24T15:42:31;8.82;;;5.15;;
10244;SDS011;5167;52.164;10.530;2022-09-24T15:44:57;10.27;;;5.88;;
10244;SDS011;5167;52.164;10.530;2022-09-24T15:47:22;10.95;;;5.65;;
10244;SDS011;5167;52.164;10.530;2022-09-24T15:49:48;10.65;;;6.05;;
10244;SDS011;5167;52.164;10.530;2022-09-24T15:54:52;11.07;;;5.45;;
10244;SDS011;5167;52.164;10.530;2022-09-24T15:57:19;8.18;;;5.47;;
10244;SDS011;5167;52.164;10.530;2022-09-24T15:59:45;9.85;;;5.97;;
10244;SDS011;5167;52.164;10.530;2022-09-24T16:02:19;8.85;;;5.55;;
10244;SDS011;5167;52.164;10.530;2022-09-24T16:04:47;10.23;;;5.10;;
10244;SDS011;5167;52.164;10.530;2022-09-24T16:07:12;10.93;;;5.57;;
10244;SDS011;5167;52.164;10.530;2022-09-24T16:09:38;8.43;;;5.57;;
10244;SDS011;5167;52.164;10.530;2022-09-24T16:12:05;8.63;;;5.25;;
10244;SDS011;5167;52.164;10.530;2022-09-24T16:14:31;8.55;;;6.00;;
10244;SDS011;5167;52.164;10.530;2022-09-24T16:16:56;8.50;;;5.15;;
10244;SDS011;5167;52.164;10.530;2022-09-24T16:19:22;7.85;;;5.07;;
10244;SDS011;5167;52.164;10.530;2022-09-24T16:21:47;8.40;;;5.15;;
10244;SDS011;5167;52.164;10.530;2022-09-24T16:24:15;8.95;;;5.60;;
10244;SDS011;5167;52.164;10.530;2022-09-24T16:26:41;7.13;;;4.70;;
10244;SDS011;5167;52.164;10.530;2022-09-24T16:29:08;14.05;;;6.15;;
10244;SDS011;5167;52.164;10.530;2022-09-24T16:31:35;10.23;;;5.35;;
10244;SDS011;5167;52.164;10.530;2022-09-24T16:34:04;8.93;;;6.07;;
10244;SDS011;5167;52.164;10.530;2022-09-24T16:36:30;7.65;;;5.32;;
10244;SDS011;5167;52.164;10.530;2022-09-24T16:38:56;10.60;;;6.78;;
10244;SDS011;5167;52.164;10.530;2022-09-24T16:41:22;7.15;;;4.95;;
10244;SDS011;5167;52.164;10.530;2022-09-24T16:43:47;8.40;;;5.40;;
10244;SDS011;5167;52.164;10.530;2022-09-24T16:46:13;7.90;;;5.47;;
10244;SDS011;5167;52.164;10.530;2022-09-24T16:48:38;8.80;;;5.75;;
10244;SDS011;5167;52.164;10.530;2022-09-24T16:51:08;7.65;;;5.13;;
10244;SDS011;5167;52.164;10.530;2022-09-24T16:53:35;8.57;;;5.82;;
10244;SDS011;5167;52.164;10.530;2022-09-24T16:56:05;8.18;;;5.32;;
10244;SDS011;5167;52.164;10.530;2022-09-24T16:58:33;8.52;;;5.80;;
10244;SDS011;5167;52.164;10.530;2022-09-24T17:01:03;7.43;;;5.40;;
10244;SDS011;5167;52.164;10.530;2022-09-24T17:03:30;8.35;;;5.30;;
10244;SDS011;5167;52.164;10.530;2022-09-24T17:05:56;8.90;;;5.95;;
10244;SDS011;5167;52.164;10.530;2022-09-24T17:08:21;9.65;;;5.75;;
10244;SDS011;5167;52.164;10.530;2022-09-24T17:10:50;10.27;;;6.10;;
10244;SDS011;5167;52.164;10.530;2022-09-24T17:13:16;9.15;;;6.70;;
10244;SDS011;5167;52.164;10.530;2022-09-24T17:15:41;9.20;;;6.00;;
10244;SDS011;5167;52.164;10.530;2022-09-24T17:18:07;11.38;;;6.90;;
10244;SDS011;5167;52.164;10.530;2022-09-24T17:20:33;11.63;;;6.93;;
10244;SDS011;5167;52.164;10.530;2022-09-24T17:22:58;10.35;;;7.28;;
10244;SDS011;5167;52.164;10.530;2022-09-24T17:25:24;11.30;;;7.25;;
10244;SDS011;5167;52.164;10.530;2022-09-24T17:27:50;8.80;;;6.80;;
10244;SDS011;5167;52.164;10.530;2022-09-24T17:30:16;11.27;;;6.68;;
10244;SDS011;5167;52.164;10.530;2022-09-24T17:32:42;10.73;;;6.85;;
10244;SDS011;5167;52.164;10.530;2022-09-24T17:35:07;11.77;;;7.30;;